createdAt,value
2018-09-30T00:03:22.544Z,5.23
2018-09-30T00:07:30.696Z,6.33
2018-09-30T00:11:38.869Z,5.40
2018-09-30T00:15:47.064Z,5.40
2018-09-30T00:19:55.263Z,5.60
2018-09-30T00:24:08.947Z,5.40
2018-09-30T00:28:17.104Z,5.20
2018-09-30T00:32:25.296Z,4.63
2018-09-30T00:36:33.440Z,5.40
2018-09-30T00:40:41.605Z,5.37
2018-09-30T00:44:49.759Z,6.07
2018-09-30T00:48:57.901Z,5.12
2018-09-30T00:53:06.052Z,6.03
2018-09-30T00:57:14.199Z,5.90
2018-09-30T01:01:22.359Z,5.53
2018-09-30T01:05:30.548Z,5.20
2018-09-30T01:09:38.685Z,4.73
2018-09-30T01:13:46.877Z,4.47
2018-09-30T01:17:55.020Z,4.63
2018-09-30T01:22:03.174Z,5.07
2018-09-30T01:26:11.326Z,5.37
2018-09-30T01:30:19.468Z,4.67
2018-09-30T01:34:27.644Z,5.40
2018-09-30T01:38:35.784Z,5.10
2018-09-30T01:42:43.944Z,4.53
2018-09-30T01:46:52.080Z,5.03
2018-09-30T01:51:00.224Z,4.77
2018-09-30T01:55:08.438Z,4.63
2018-09-30T01:59:16.589Z,4.03
2018-09-30T02:03:24.725Z,3.73
2018-09-30T02:07:32.953Z,4.07
2018-09-30T02:11:41.097Z,4.13
2018-09-30T02:15:49.281Z,4.67
2018-09-30T02:19:57.457Z,5.07
2018-09-30T02:24:05.617Z,4.67
2018-09-30T02:28:13.805Z,4.30
2018-09-30T02:32:22.257Z,4.50
2018-09-30T02:36:30.408Z,4.00
2018-09-30T02:40:38.337Z,3.70
2018-09-30T02:44:46.482Z,3.50
2018-09-30T02:48:54.663Z,3.80
2018-09-30T02:53:06.656Z,4.73
2018-09-30T02:57:14.795Z,3.70
2018-09-30T03:01:22.949Z,4.30
2018-09-30T03:05:31.132Z,4.95
2018-09-30T03:09:40.447Z,9.23
2018-09-30T03:13:48.363Z,4.30
2018-09-30T03:17:56.512Z,4.20
2018-09-30T03:22:04.657Z,4.30
2018-09-30T03:26:12.793Z,3.93
2018-09-30T03:30:20.937Z,3.57
2018-09-30T03:34:29.151Z,3.80
2018-09-30T03:38:37.284Z,4.40
2018-09-30T03:42:45.413Z,3.23
2018-09-30T03:46:53.556Z,3.50
2018-09-30T03:51:01.735Z,3.73
2018-09-30T03:55:10.029Z,3.80
2018-09-30T03:59:18.165Z,3.50
2018-09-30T04:03:26.329Z,3.77
2018-09-30T04:07:34.455Z,3.53
2018-09-30T04:11:42.611Z,3.77
2018-09-30T04:15:50.765Z,3.80
2018-09-30T04:19:58.915Z,2.93
2018-09-30T04:24:09.029Z,3.00
2018-09-30T04:28:17.180Z,2.83
2018-09-30T04:32:25.318Z,3.57
2018-09-30T04:36:34.408Z,3.60
2018-09-30T04:40:42.552Z,3.90
2018-09-30T04:44:50.704Z,3.53
2018-09-30T04:48:58.889Z,3.07
2018-09-30T04:53:07.152Z,3.47
2018-09-30T04:57:15.305Z,4.00
2018-09-30T05:01:23.460Z,3.50
2018-09-30T05:05:31.371Z,3.43
2018-09-30T05:09:39.510Z,3.90
2018-09-30T05:13:47.689Z,3.77
2018-09-30T05:17:55.827Z,3.80
2018-09-30T05:22:04.163Z,3.70
2018-09-30T05:26:12.298Z,3.57
2018-09-30T05:30:20.444Z,3.50
2018-09-30T05:34:28.596Z,4.40
2018-09-30T05:38:37.088Z,3.60
2018-09-30T05:42:45.269Z,3.80
2018-09-30T05:46:53.443Z,3.47
2018-09-30T05:51:01.593Z,3.83
2018-09-30T05:55:09.729Z,3.87
2018-09-30T05:59:17.868Z,4.00
2018-09-30T06:03:26.025Z,4.20
2018-09-30T06:07:34.164Z,4.90
2018-09-30T06:11:43.616Z,5.30
2018-09-30T06:15:51.824Z,5.70
2018-09-30T06:19:59.924Z,6.20
2018-09-30T06:24:08.594Z,5.00
2018-09-30T06:28:16.685Z,4.73
2018-09-30T06:32:24.826Z,5.10
2018-09-30T06:36:32.960Z,5.23
2018-09-30T06:40:41.093Z,4.67
2018-09-30T06:44:49.250Z,6.80
2018-09-30T06:48:57.376Z,7.30
2018-09-30T06:53:05.512Z,10.80
2018-09-30T06:57:13.708Z,7.40
2018-09-30T07:01:21.860Z,13.40
2018-09-30T07:05:29.989Z,9.60
2018-09-30T07:09:38.125Z,7.50
2018-09-30T07:13:46.332Z,10.50
2018-09-30T07:17:54.472Z,8.83
2018-09-30T07:22:02.607Z,9.20
2018-09-30T07:26:10.748Z,9.53
2018-09-30T07:30:18.893Z,6.00
2018-09-30T07:34:27.028Z,14.20
2018-09-30T07:38:35.184Z,13.67
2018-09-30T07:42:43.330Z,14.37
2018-09-30T07:46:51.534Z,13.73
2018-09-30T07:50:59.614Z,8.90
2018-09-30T07:55:07.743Z,11.37
2018-09-30T07:59:15.888Z,14.13
2018-09-30T08:03:24.033Z,10.80
2018-09-30T08:07:32.220Z,8.07
2018-09-30T08:11:40.450Z,7.80
2018-09-30T08:15:48.529Z,6.10
2018-09-30T08:19:56.683Z,5.60
2018-09-30T08:24:07.832Z,4.60
2018-09-30T08:28:15.928Z,5.03
2018-09-30T08:32:24.064Z,4.50
2018-09-30T08:36:32.216Z,4.60
2018-09-30T08:40:45.867Z,5.27
2018-09-30T08:44:53.997Z,5.87
2018-09-30T08:49:02.134Z,6.73
2018-09-30T08:53:10.296Z,6.30
2018-09-30T08:57:18.438Z,5.90
2018-09-30T09:01:26.580Z,6.57
2018-09-30T09:05:34.719Z,5.70
2018-09-30T09:09:42.884Z,7.77
2018-09-30T09:13:51.025Z,8.20
2018-09-30T09:17:59.156Z,5.57
2018-09-30T09:22:07.280Z,8.93
2018-09-30T09:26:15.414Z,4.53
2018-09-30T09:30:23.555Z,4.00
2018-09-30T09:34:32.350Z,3.93
2018-09-30T09:38:40.484Z,4.43
2018-09-30T09:42:48.511Z,3.80
2018-09-30T09:46:56.655Z,3.83
2018-09-30T09:51:04.987Z,3.60
2018-09-30T09:55:13.112Z,4.20
2018-09-30T09:59:21.260Z,4.10
2018-09-30T10:03:29.405Z,3.77
2018-09-30T10:07:37.537Z,3.80
2018-09-30T10:11:45.687Z,3.83
2018-09-30T10:15:53.887Z,3.00
2018-09-30T10:20:02.070Z,3.73
2018-09-30T10:24:10.220Z,3.33
2018-09-30T10:28:18.550Z,3.80
2018-09-30T10:32:26.963Z,3.50
2018-09-30T10:36:35.098Z,3.60
2018-09-30T10:40:43.253Z,3.30
2018-09-30T10:44:51.399Z,3.10
2018-09-30T10:48:59.533Z,3.63
2018-09-30T10:53:07.689Z,3.37
2018-09-30T10:57:15.829Z,3.50
2018-09-30T11:01:24.067Z,2.90
2018-09-30T11:05:32.201Z,3.17
2018-09-30T11:09:40.372Z,3.70
2018-09-30T11:13:48.509Z,3.07
2018-09-30T11:17:56.703Z,3.47
2018-09-30T11:22:04.807Z,3.50
2018-09-30T11:26:12.952Z,4.20
2018-09-30T11:30:21.075Z,3.10
2018-09-30T11:34:29.209Z,3.53
2018-09-30T11:38:37.360Z,3.23
2018-09-30T11:42:45.766Z,3.30
2018-09-30T11:46:53.913Z,3.30
2018-09-30T11:51:02.050Z,3.40
2018-09-30T11:55:10.187Z,3.03
2018-09-30T11:59:18.388Z,3.40
2018-09-30T12:03:26.526Z,3.03
2018-09-30T12:07:34.678Z,3.03
2018-09-30T12:15:57.476Z,3.47
2018-09-30T12:20:05.664Z,3.53
2018-09-30T12:24:13.791Z,3.57
2018-09-30T12:28:21.931Z,3.10
2018-09-30T12:32:30.104Z,3.37
2018-09-30T12:36:38.239Z,3.03
2018-09-30T12:40:46.372Z,2.80
2018-09-30T12:44:54.521Z,3.13
2018-09-30T12:49:02.784Z,3.20
2018-09-30T12:53:10.935Z,3.40
2018-09-30T12:57:19.085Z,3.03
2018-09-30T13:01:27.223Z,3.42
2018-09-30T13:05:35.356Z,3.33
2018-09-30T13:09:45.294Z,3.00
2018-09-30T13:13:53.428Z,3.07
2018-09-30T13:18:01.572Z,2.83
2018-09-30T13:22:09.881Z,2.93
2018-09-30T13:26:18.058Z,3.13
2018-09-30T13:30:26.192Z,3.07
2018-09-30T13:34:34.332Z,3.03
2018-09-30T13:38:42.539Z,3.07
2018-09-30T13:42:50.701Z,2.77
2018-09-30T13:46:58.846Z,2.87
2018-09-30T13:51:07.096Z,2.70
2018-09-30T13:55:14.966Z,3.00
2018-09-30T13:59:23.109Z,2.90
2018-09-30T14:03:31.288Z,2.93
2018-09-30T14:07:39.661Z,3.30
2018-09-30T14:11:47.856Z,2.47
2018-09-30T14:15:56.010Z,3.40
2018-09-30T14:20:04.144Z,3.00
2018-09-30T14:24:12.321Z,3.30
2018-09-30T14:28:20.460Z,3.23
2018-09-30T14:32:28.609Z,3.73
2018-09-30T14:36:36.772Z,3.00
2018-09-30T14:40:44.908Z,3.60
2018-09-30T14:44:53.060Z,3.30
2018-09-30T14:49:01.200Z,3.30
2018-09-30T14:53:09.329Z,3.20
2018-09-30T14:57:17.488Z,3.53
2018-09-30T15:01:25.684Z,5.63
2018-09-30T15:05:33.888Z,3.63
2018-09-30T15:09:42.036Z,3.37
2018-09-30T15:13:50.184Z,4.08
2018-09-30T15:17:58.329Z,4.17
2018-09-30T15:22:06.556Z,3.30
2018-09-30T15:26:14.704Z,3.90
2018-09-30T15:30:22.841Z,4.47
2018-09-30T15:34:30.980Z,4.40
2018-09-30T15:38:39.131Z,4.40
2018-09-30T15:42:47.276Z,3.70
2018-09-30T15:46:55.506Z,3.60
2018-09-30T15:51:03.653Z,3.30
2018-09-30T15:55:11.792Z,3.73
2018-09-30T15:59:19.958Z,3.50
2018-09-30T16:03:27.864Z,3.63
2018-09-30T16:07:36.012Z,4.40
2018-09-30T16:11:44.147Z,3.77
2018-09-30T16:15:52.284Z,3.90
2018-09-30T16:20:00.455Z,5.97
2018-09-30T16:24:08.701Z,3.50
2018-09-30T16:28:16.956Z,4.03
2018-09-30T16:32:25.020Z,7.63
2018-09-30T16:36:33.255Z,5.97
2018-09-30T16:40:41.401Z,4.37
2018-09-30T16:44:49.532Z,4.00
2018-09-30T16:48:57.671Z,5.07
2018-09-30T16:53:05.872Z,4.10
2018-09-30T16:57:14.029Z,4.07
2018-09-30T17:01:22.205Z,4.13
2018-09-30T17:05:30.339Z,4.33
2018-09-30T17:09:38.475Z,4.20
2018-09-30T17:13:46.911Z,4.97
2018-09-30T17:17:55.060Z,4.87
2018-09-30T17:22:03.222Z,4.30
2018-09-30T17:26:11.401Z,5.40
2018-09-30T17:30:19.546Z,5.37
2018-09-30T17:34:27.728Z,14.37
2018-09-30T17:38:35.889Z,14.53
2018-09-30T17:42:44.061Z,11.07
2018-09-30T17:46:52.220Z,8.38
2018-09-30T17:51:00.390Z,5.90
2018-09-30T17:55:08.529Z,5.87
2018-09-30T17:59:16.681Z,6.20
2018-09-30T18:03:24.837Z,14.20
2018-09-30T18:07:33.012Z,9.67
2018-09-30T18:11:41.185Z,7.70
2018-09-30T18:15:49.347Z,7.60
2018-09-30T18:19:57.494Z,17.00
2018-09-30T18:24:05.809Z,21.70
2018-09-30T18:28:13.952Z,9.07
2018-09-30T18:32:22.089Z,23.13
2018-09-30T18:36:30.244Z,59.63
2018-09-30T18:40:40.823Z,33.50
2018-09-30T18:44:48.992Z,38.13
2018-09-30T18:48:56.939Z,11.20
2018-09-30T18:53:05.087Z,8.27
2018-09-30T18:57:13.077Z,7.43
2018-09-30T19:01:21.284Z,8.10
2018-09-30T19:05:29.888Z,10.03
2018-09-30T19:09:38.043Z,10.20
2018-09-30T19:13:46.217Z,10.90
2018-09-30T19:17:54.363Z,10.23
2018-09-30T19:22:02.512Z,10.37
2018-09-30T19:26:10.656Z,10.47
2018-09-30T19:30:18.889Z,8.30
2018-09-30T19:34:27.051Z,11.50
2018-09-30T19:38:35.369Z,11.70
2018-09-30T19:42:43.510Z,8.10
2018-09-30T19:46:51.770Z,7.13
2018-09-30T19:50:59.936Z,6.70
2018-09-30T19:55:08.212Z,7.80
2018-09-30T19:59:16.528Z,7.10
2018-09-30T20:03:24.728Z,9.13
2018-09-30T20:07:33.071Z,7.00
2018-09-30T20:11:41.425Z,6.87
2018-09-30T20:15:49.687Z,26.10
2018-09-30T20:19:57.903Z,61.17
2018-09-30T20:24:06.077Z,14.50
2018-09-30T20:28:14.309Z,9.17
2018-09-30T20:32:22.712Z,8.10
2018-09-30T20:36:30.852Z,7.93
2018-09-30T20:40:40.884Z,6.90
2018-09-30T20:44:49.228Z,8.10
2018-09-30T20:48:57.488Z,7.20
2018-09-30T20:53:05.687Z,9.73
2018-09-30T20:57:13.887Z,7.93
2018-09-30T21:01:22.077Z,6.47
2018-09-30T21:06:48.588Z,7.43
2018-09-30T21:10:56.499Z,7.63
2018-09-30T21:15:04.535Z,7.20
2018-09-30T21:19:12.768Z,8.87
2018-09-30T21:23:20.912Z,7.37
2018-09-30T21:27:29.098Z,7.07
2018-09-30T21:31:37.233Z,6.83
2018-09-30T21:35:45.389Z,7.23
2018-09-30T21:39:53.537Z,6.80
2018-09-30T21:44:01.706Z,5.60
2018-09-30T21:48:09.835Z,6.30
2018-09-30T21:52:17.984Z,5.50
2018-09-30T21:56:26.135Z,6.07
2018-09-30T22:00:38.948Z,6.27
2018-09-30T22:04:47.076Z,6.60
2018-09-30T22:08:55.220Z,6.67
2018-09-30T22:13:03.372Z,6.57
2018-09-30T22:17:11.514Z,6.57
2018-09-30T22:21:19.690Z,5.10
2018-09-30T22:25:27.827Z,5.40
2018-09-30T22:29:35.959Z,5.50
2018-09-30T22:33:44.096Z,6.27
2018-09-30T22:37:52.229Z,6.17
2018-09-30T22:42:00.395Z,6.50
2018-09-30T22:46:08.544Z,5.80
2018-09-30T22:50:16.704Z,5.50
2018-09-30T22:54:24.865Z,5.60
2018-09-30T22:58:33.003Z,5.50
2018-09-30T23:02:41.154Z,5.73
2018-09-30T23:06:49.281Z,5.80
2018-09-30T23:10:57.415Z,5.70
2018-09-30T23:15:05.580Z,5.73
2018-09-30T23:19:13.706Z,6.63
2018-09-30T23:23:21.868Z,5.53
2018-09-30T23:27:30.005Z,5.83
2018-09-30T23:31:38.149Z,5.67
2018-09-30T23:35:46.043Z,6.00
2018-09-30T23:39:54.185Z,5.53
2018-09-30T23:44:02.095Z,6.07
2018-09-30T23:48:10.293Z,6.30
2018-09-30T23:52:18.429Z,7.00
2018-09-30T23:56:26.440Z,5.40
